sensor_id;sensor_type;location;lat;lon;timestamp;pressure;altitude;pressure_sealevel;temperature;humidity
10392;BME280;5242;49.244;6.774;2023-07-16T00:05:29;99330.34;;;17.92;100.00
10392;BME280;5242;49.244;6.774;2023-07-16T00:13:21;99330.78;;;17.87;100.00
10392;BME280;5242;49.244;6.774;2023-07-16T00:21:13;99318.63;;;17.77;100.00
10392;BME280;5242;49.244;6.774;2023-07-16T00:29:05;99328.16;;;17.66;100.00
10392;BME280;5242;49.244;6.774;2023-07-16T00:36:57;99358.16;;;17.53;100.00
10392;BME280;5242;49.244;6.774;2023-07-16T00:44:53;99360.66;;;17.36;100.00
10392;BME280;5242;49.244;6.774;2023-07-16T00:52:45;99388.25;;;17.26;100.00
10392;BME280;5242;49.244;6.774;2023-07-16T01:00:38;99380.44;;;17.13;100.00
10392;BME280;5242;49.244;6.774;2023-07-16T01:08:41;99397.00;;;17.03;100.00
10392;BME280;5242;49.244;6.774;2023-07-16T01:16:34;99400.97;;;16.91;100.00
10392;BME280;5242;49.244;6.774;2023-07-16T01:24:44;99407.69;;;16.83;100.00
10392;BME280;5242;49.244;6.774;2023-07-16T01:32:40;99401.03;;;16.69;100.00
10392;BME280;5242;49.244;6.774;2023-07-16T01:40:32;99418.72;;;16.61;100.00
10392;BME280;5242;49.244;6.774;2023-07-16T01:48:31;99427.00;;;16.54;100.00
10392;BME280;5242;49.244;6.774;2023-07-16T01:56:23;99427.00;;;16.47;100.00
10392;BME280;5242;49.244;6.774;2023-07-16T02:04:15;99436.47;;;16.39;100.00
10392;BME280;5242;49.244;6.774;2023-07-16T02:12:07;99439.59;;;16.34;100.00
10392;BME280;5242;49.244;6.774;2023-07-16T02:19:59;99445.47;;;16.25;100.00
10392;BME280;5242;49.244;6.774;2023-07-16T02:27:51;99460.03;;;16.18;100.00
10392;BME280;5242;49.244;6.774;2023-07-16T02:35:46;99468.25;;;16.11;100.00
10392;BME280;5242;49.244;6.774;2023-07-16T02:43:39;99465.09;;;16.02;100.00
10392;BME280;5242;49.244;6.774;2023-07-16T02:51:31;99470.22;;;15.93;100.00
10392;BME280;5242;49.244;6.774;2023-07-16T02:59:22;99472.56;;;15.83;100.00
10392;BME280;5242;49.244;6.774;2023-07-16T03:07:14;99481.94;;;15.79;100.00
10392;BME280;5242;49.244;6.774;2023-07-16T03:15:07;99489.75;;;15.66;100.00
10392;BME280;5242;49.244;6.774;2023-07-16T03:22:59;99501.03;;;15.47;100.00
10392;BME280;5242;49.244;6.774;2023-07-16T03:30:51;99504.16;;;15.34;100.00
10392;BME280;5242;49.244;6.774;2023-07-16T03:38:43;99501.78;;;15.29;100.00
10392;BME280;5242;49.244;6.774;2023-07-16T03:46:35;99507.69;;;15.35;100.00
10392;BME280;5242;49.244;6.774;2023-07-16T03:54:27;99512.38;;;15.38;100.00
10392;BME280;5242;49.244;6.774;2023-07-16T04:02:19;99528.06;;;15.37;100.00
10392;BME280;5242;49.244;6.774;2023-07-16T04:10:10;99531.22;;;15.39;100.00
10392;BME280;5242;49.244;6.774;2023-07-16T04:18:02;99542.94;;;15.36;100.00
10392;BME280;5242;49.244;6.774;2023-07-16T04:25:56;99565.72;;;15.44;100.00
10392;BME280;5242;49.244;6.774;2023-07-16T04:33:48;99559.13;;;15.56;100.00
10392;BME280;5242;49.244;6.774;2023-07-16T04:41:39;99563.91;;;15.73;100.00
10392;BME280;5242;49.244;6.774;2023-07-16T04:49:34;99571.44;;;15.91;100.00
10392;BME280;5242;49.244;6.774;2023-07-16T04:57:26;99570.31;;;16.13;100.00
10392;BME280;5242;49.244;6.774;2023-07-16T05:05:18;99578.94;;;16.33;100.00
10392;BME280;5242;49.244;6.774;2023-07-16T05:13:09;99580.94;;;16.47;100.00
10392;BME280;5242;49.244;6.774;2023-07-16T05:21:01;99588.78;;;16.70;100.00
10392;BME280;5242;49.244;6.774;2023-07-16T05:28:53;99605.31;;;16.95;100.00
10392;BME280;5242;49.244;6.774;2023-07-16T05:36:45;99624.94;;;17.19;100.00
10392;BME280;5242;49.244;6.774;2023-07-16T05:44:37;99620.97;;;17.41;100.00
10392;BME280;5242;49.244;6.774;2023-07-16T05:52:28;99633.09;;;17.54;100.00
10392;BME280;5242;49.244;6.774;2023-07-16T06:00:20;99624.00;;;17.72;100.00
10392;BME280;5242;49.244;6.774;2023-07-16T06:08:12;99630.19;;;18.01;100.00
10392;BME280;5242;49.244;6.774;2023-07-16T06:16:04;99637.16;;;18.20;99.57
10392;BME280;5242;49.244;6.774;2023-07-16T06:23:56;99642.94;;;18.43;98.41
10392;BME280;5242;49.244;6.774;2023-07-16T06:31:58;99644.72;;;18.68;95.10
10392;BME280;5242;49.244;6.774;2023-07-16T06:39:50;99644.53;;;18.97;95.81
10392;BME280;5242;49.244;6.774;2023-07-16T06:47:42;99645.00;;;19.29;91.16
10392;BME280;5242;49.244;6.774;2023-07-16T06:55:34;99653.88;;;19.51;88.24
10392;BME280;5242;49.244;6.774;2023-07-16T07:03:25;99652.50;;;20.01;85.87
10392;BME280;5242;49.244;6.774;2023-07-16T07:11:17;99647.28;;;20.65;84.02
10392;BME280;5242;49.244;6.774;2023-07-16T07:19:09;99652.38;;;21.17;80.73
10392;BME280;5242;49.244;6.774;2023-07-16T07:27:01;99660.91;;;21.89;77.73
10392;BME280;5242;49.244;6.774;2023-07-16T07:34:53;99669.00;;;21.80;70.16
10392;BME280;5242;49.244;6.774;2023-07-16T07:42:45;99677.03;;;21.75;71.21
10392;BME280;5242;49.244;6.774;2023-07-16T07:50:36;99676.19;;;21.78;69.70
10392;BME280;5242;49.244;6.774;2023-07-16T07:58:28;99674.56;;;22.20;70.28
10392;BME280;5242;49.244;6.774;2023-07-16T08:06:20;99674.78;;;22.46;66.66
10392;BME280;5242;49.244;6.774;2023-07-16T08:14:12;99681.25;;;22.75;63.39
10392;BME280;5242;49.244;6.774;2023-07-16T08:22:04;99689.59;;;22.75;62.29
10392;BME280;5242;49.244;6.774;2023-07-16T08:29:56;99686.81;;;23.08;59.68
10392;BME280;5242;49.244;6.774;2023-07-16T08:37:48;99676.91;;;23.23;59.81
10392;BME280;5242;49.244;6.774;2023-07-16T08:45:40;99674.56;;;23.68;58.09
10392;BME280;5242;49.244;6.774;2023-07-16T08:53:34;99683.38;;;24.98;57.28
10392;BME280;5242;49.244;6.774;2023-07-16T09:01:26;99681.09;;;26.72;54.61
10392;BME280;5242;49.244;6.774;2023-07-16T09:09:22;99687.28;;;27.44;46.25
10392;BME280;5242;49.244;6.774;2023-07-16T09:25:11;99692.28;;;29.77;nan
10392;BME280;5242;49.244;6.774;2023-07-16T09:33:10;99677.44;;;31.41;nan
10392;BME280;5242;49.244;6.774;2023-07-16T09:41:05;99687.69;;;32.49;nan
10392;BME280;5242;49.244;6.774;2023-07-16T09:48:57;99679.38;;;33.15;nan
10392;BME280;5242;49.244;6.774;2023-07-16T09:56:54;99683.25;;;33.28;nan
10392;BME280;5242;49.244;6.774;2023-07-16T10:04:47;99683.75;;;34.26;nan
10392;BME280;5242;49.244;6.774;2023-07-16T10:12:41;99676.69;;;35.00;nan
10392;BME280;5242;49.244;6.774;2023-07-16T10:20:35;99664.63;;;35.58;nan
10392;BME280;5242;49.244;6.774;2023-07-16T10:28:28;99663.94;;;34.66;nan
10392;BME280;5242;49.244;6.774;2023-07-16T10:36:19;99650.31;;;33.96;nan
10392;BME280;5242;49.244;6.774;2023-07-16T10:44:14;99669.75;;;33.49;nan
10392;BME280;5242;49.244;6.774;2023-07-16T10:52:06;99666.75;;;31.05;nan
10392;BME280;5242;49.244;6.774;2023-07-16T11:07:51;99652.97;;;30.06;nan
10392;BME280;5242;49.244;6.774;2023-07-16T11:15:46;99640.19;;;28.98;nan
10392;BME280;5242;49.244;6.774;2023-07-16T11:23:38;99655.09;;;28.37;nan
10392;BME280;5242;49.244;6.774;2023-07-16T11:31:38;99652.78;;;29.95;nan
10392;BME280;5242;49.244;6.774;2023-07-16T11:39:31;99625.53;;;32.26;nan
10392;BME280;5242;49.244;6.774;2023-07-16T11:47:25;99623.28;;;31.73;nan
10392;BME280;5242;49.244;6.774;2023-07-16T11:55:17;99616.00;;;30.58;nan
10392;BME280;5242;49.244;6.774;2023-07-16T12:03:09;99619.63;;;32.24;nan
10392;BME280;5242;49.244;6.774;2023-07-16T12:11:01;99620.00;;;31.54;nan
10392;BME280;5242;49.244;6.774;2023-07-16T12:18:53;99608.97;;;32.83;nan
10392;BME280;5242;49.244;6.774;2023-07-16T12:26:45;99598.72;;;33.90;nan
10392;BME280;5242;49.244;6.774;2023-07-16T12:34:37;99590.19;;;35.63;nan
10392;BME280;5242;49.244;6.774;2023-07-16T12:42:29;99596.69;;;36.43;nan
10392;BME280;5242;49.244;6.774;2023-07-16T12:50:21;99576.91;;;36.13;nan
10392;BME280;5242;49.244;6.774;2023-07-16T12:58:13;99587.47;;;36.37;nan
10392;BME280;5242;49.244;6.774;2023-07-16T13:06:05;99592.31;;;35.46;nan
10392;BME280;5242;49.244;6.774;2023-07-16T13:13:57;99591.59;;;34.93;nan
10392;BME280;5242;49.244;6.774;2023-07-16T13:21:48;99598.47;;;34.22;nan
10392;BME280;5242;49.244;6.774;2023-07-16T13:29:40;99593.31;;;33.81;nan
10392;BME280;5242;49.244;6.774;2023-07-16T13:37:32;99583.69;;;32.51;nan
10392;BME280;5242;49.244;6.774;2023-07-16T13:45:24;99577.28;;;31.09;nan
10392;BME280;5242;49.244;6.774;2023-07-16T13:53:16;99587.38;;;30.39;nan
10392;BME280;5242;49.244;6.774;2023-07-16T14:01:07;99579.94;;;30.21;nan
10392;BME280;5242;49.244;6.774;2023-07-16T14:09:00;99584.00;;;30.35;nan
10392;BME280;5242;49.244;6.774;2023-07-16T14:16:51;99586.19;;;29.96;nan
10392;BME280;5242;49.244;6.774;2023-07-16T14:24:44;99570.59;;;30.09;nan
10392;BME280;5242;49.244;6.774;2023-07-16T14:32:38;99572.88;;;30.26;nan
10392;BME280;5242;49.244;6.774;2023-07-16T14:40:30;99568.09;;;29.97;nan
10392;BME280;5242;49.244;6.774;2023-07-16T14:48:21;99561.72;;;29.66;nan
10392;BME280;5242;49.244;6.774;2023-07-16T14:56:14;99557.72;;;28.90;nan
10392;BME280;5242;49.244;6.774;2023-07-16T15:04:06;99550.16;;;29.05;nan
10392;BME280;5242;49.244;6.774;2023-07-16T15:11:58;99553.75;;;29.20;nan
10392;BME280;5242;49.244;6.774;2023-07-16T15:19:51;99538.56;;;29.12;nan
10392;BME280;5242;49.244;6.774;2023-07-16T15:27:43;99527.66;;;28.90;nan
10392;BME280;5242;49.244;6.774;2023-07-16T15:35:35;99520.47;;;28.74;nan
10392;BME280;5242;49.244;6.774;2023-07-16T15:43:27;99519.22;;;28.75;nan
10392;BME280;5242;49.244;6.774;2023-07-16T15:51:19;99514.34;;;29.00;nan
10392;BME280;5242;49.244;6.774;2023-07-16T15:59:11;99516.91;;;28.50;nan
10392;BME280;5242;49.244;6.774;2023-07-16T16:07:04;99513.50;;;27.79;nan
10392;BME280;5242;49.244;6.774;2023-07-16T16:14:55;99513.97;;;27.07;nan
10392;BME280;5242;49.244;6.774;2023-07-16T16:22:47;99503.09;;;27.00;nan
10392;BME280;5242;49.244;6.774;2023-07-16T16:30:40;99501.84;;;26.55;nan
10392;BME280;5242;49.244;6.774;2023-07-16T16:38:33;99505.84;;;26.45;nan
10392;BME280;5242;49.244;6.774;2023-07-16T16:46:24;99503.66;;;26.31;nan
10392;BME280;5242;49.244;6.774;2023-07-16T16:54:16;99519.44;;;26.24;nan
10392;BME280;5242;49.244;6.774;2023-07-16T17:02:08;99514.97;;;25.87;nan
10392;BME280;5242;49.244;6.774;2023-07-16T17:10:00;99520.34;;;25.50;nan
10392;BME280;5242;49.244;6.774;2023-07-16T17:17:53;99508.63;;;25.33;nan
10392;BME280;5242;49.244;6.774;2023-07-16T17:25:50;99512.59;;;25.54;nan
10392;BME280;5242;49.244;6.774;2023-07-16T17:33:42;99510.28;;;25.84;nan
10392;BME280;5242;49.244;6.774;2023-07-16T17:41:34;99519.66;;;25.68;nan
10392;BME280;5242;49.244;6.774;2023-07-16T17:49:26;99515.88;;;25.52;nan
10392;BME280;5242;49.244;6.774;2023-07-16T17:57:18;99517.22;;;25.48;nan
10392;BME280;5242;49.244;6.774;2023-07-16T18:05:10;99518.16;;;25.45;nan
10392;BME280;5242;49.244;6.774;2023-07-16T18:13:02;99510.19;;;24.77;nan
10392;BME280;5242;49.244;6.774;2023-07-16T18:20:53;99523.66;;;24.31;nan
10392;BME280;5242;49.244;6.774;2023-07-16T18:28:50;99538.59;;;23.86;nan
10392;BME280;5242;49.244;6.774;2023-07-16T18:36:42;99542.69;;;23.27;nan
10392;BME280;5242;49.244;6.774;2023-07-16T18:44:34;99527.16;;;22.67;nan
10392;BME280;5242;49.244;6.774;2023-07-16T18:52:26;99546.19;;;22.36;nan
10392;BME280;5242;49.244;6.774;2023-07-16T19:00:18;99551.16;;;22.08;nan
10392;BME280;5242;49.244;6.774;2023-07-16T19:08:10;99548.13;;;21.86;nan
10392;BME280;5242;49.244;6.774;2023-07-16T19:16:02;99552.69;;;21.57;nan
10392;BME280;5242;49.244;6.774;2023-07-16T19:23:53;99561.16;;;21.30;nan
10392;BME280;5242;49.244;6.774;2023-07-16T19:31:46;99579.88;;;21.02;nan
10392;BME280;5242;49.244;6.774;2023-07-16T19:39:38;99594.66;;;20.68;nan
10392;BME280;5242;49.244;6.774;2023-07-16T19:47:30;99601.09;;;20.34;nan
10392;BME280;5242;49.244;6.774;2023-07-16T19:55:22;99605.44;;;20.08;nan
10392;BME280;5242;49.244;6.774;2023-07-16T20:03:14;99619.16;;;19.85;nan
10392;BME280;5242;49.244;6.774;2023-07-16T20:11:06;99627.28;;;19.65;nan
10392;BME280;5242;49.244;6.774;2023-07-16T20:18:58;99618.88;;;19.41;nan
10392;BME280;5242;49.244;6.774;2023-07-16T20:26:49;99624.19;;;19.21;nan
10392;BME280;5242;49.244;6.774;2023-07-16T20:34:41;99638.88;;;19.11;nan
10392;BME280;5242;49.244;6.774;2023-07-16T20:42:33;99633.63;;;18.82;nan
10392;BME280;5242;49.244;6.774;2023-07-16T20:50:27;99638.47;;;18.64;nan
10392;BME280;5242;49.244;6.774;2023-07-16T20:58:19;99641.66;;;18.59;nan
10392;BME280;5242;49.244;6.774;2023-07-16T21:06:11;99643.63;;;18.58;nan
10392;BME280;5242;49.244;6.774;2023-07-16T21:14:03;99645.22;;;18.56;nan
10392;BME280;5242;49.244;6.774;2023-07-16T21:21:55;99649.66;;;18.39;nan
10392;BME280;5242;49.244;6.774;2023-07-16T21:29:46;99652.09;;;18.26;nan
10392;BME280;5242;49.244;6.774;2023-07-16T21:37:39;99642.34;;;18.11;nan
10392;BME280;5242;49.244;6.774;2023-07-16T21:45:31;99638.38;;;18.12;nan
10392;BME280;5242;49.244;6.774;2023-07-16T21:53:24;99652.59;;;18.07;nan
10392;BME280;5242;49.244;6.774;2023-07-16T22:01:16;99658.53;;;17.94;nan
10392;BME280;5242;49.244;6.774;2023-07-16T22:09:09;99662.56;;;17.65;nan
10392;BME280;5242;49.244;6.774;2023-07-16T22:17:01;99669.31;;;17.35;nan
10392;BME280;5242;49.244;6.774;2023-07-16T22:24:53;99676.03;;;17.23;nan
10392;BME280;5242;49.244;6.774;2023-07-16T22:32:45;99679.59;;;16.95;nan
10392;BME280;5242;49.244;6.774;2023-07-16T22:40:37;99676.75;;;16.66;nan
10392;BME280;5242;49.244;6.774;2023-07-16T22:48:29;99675.19;;;16.51;nan
10392;BME280;5242;49.244;6.774;2023-07-16T22:56:21;99683.81;;;16.46;nan
10392;BME280;5242;49.244;6.774;2023-07-16T23:04:17;99675.56;;;16.46;nan
10392;BME280;5242;49.244;6.774;2023-07-16T23:12:09;99677.13;;;16.40;nan
10392;BME280;5242;49.244;6.774;2023-07-16T23:20:01;99670.03;;;16.35;nan
10392;BME280;5242;49.244;6.774;2023-07-16T23:27:53;99677.88;;;16.29;nan
10392;BME280;5242;49.244;6.774;2023-07-16T23:35:45;99676.66;;;16.13;nan
10392;BME280;5242;49.244;6.774;2023-07-16T23:43:37;99679.28;;;15.80;nan
10392;BME280;5242;49.244;6.774;2023-07-16T23:51:29;99677.09;;;15.49;nan
10392;BME280;5242;49.244;6.774;2023-07-16T23:59:20;99678.94;;;15.27;nan
